createdAt,value
2023-02-18T00:03:50.317Z,101299.28
2023-02-18T00:08:57.138Z,101302.53
2023-02-18T00:14:03.734Z,101293.63
2023-02-18T00:19:12.276Z,101351.19
2023-02-18T00:24:18.378Z,101296.94
2023-02-18T00:29:23.086Z,101272.88
2023-02-18T00:34:29.038Z,101271.38
2023-02-18T00:39:35.373Z,101271.81
2023-02-18T00:44:43.578Z,101310.09
2023-02-18T00:49:50.833Z,101298.31
2023-02-18T00:54:56.440Z,101334.13
2023-02-18T01:00:01.487Z,101308.09
2023-02-18T01:05:08.195Z,101336.22
2023-02-18T01:10:14.917Z,101328.88
2023-02-18T01:15:20.458Z,101325.91
2023-02-18T01:20:26.168Z,101296.84
2023-02-18T01:25:32.927Z,101289.63
2023-02-18T01:30:39.775Z,101272.94
2023-02-18T01:35:47.267Z,101297.75
2023-02-18T01:40:55.712Z,101266.22
2023-02-18T01:46:17.698Z,101273.91
2023-02-18T01:51:33.386Z,101285.06
2023-02-18T01:56:46.315Z,101312.84
2023-02-18T02:01:52.988Z,101322.47
2023-02-18T02:06:59.764Z,101331.84
2023-02-18T02:12:23.278Z,101332.66
2023-02-18T02:17:38.464Z,101318.75
2023-02-18T02:23:04.705Z,101324.59
2023-02-18T02:28:25.715Z,101311.34
2023-02-18T02:33:48.776Z,101284.25
2023-02-18T02:39:01.719Z,101290.03
2023-02-18T02:44:24.011Z,101262.78
2023-02-18T02:49:30.970Z,101262.44
2023-02-18T02:54:37.926Z,101255.13
2023-02-18T02:59:48.592Z,101267.00
2023-02-18T03:05:04.005Z,101250.13
2023-02-18T03:10:20.708Z,101243.72
2023-02-18T03:15:43.599Z,101244.34
2023-02-18T03:20:57.767Z,101246.00
2023-02-18T03:26:05.378Z,101240.19
2023-02-18T03:31:16.703Z,101245.69
2023-02-18T03:36:23.964Z,101231.94
2023-02-18T03:41:29.423Z,101227.63
2023-02-18T03:46:37.410Z,101263.06
2023-02-18T03:51:43.239Z,101198.44
2023-02-18T03:56:49.123Z,101190.59
2023-02-18T04:01:55.361Z,101187.00
2023-02-18T04:07:00.507Z,101179.34
2023-02-18T04:12:06.990Z,101169.16
2023-02-18T04:17:12.067Z,101199.91
2023-02-18T04:22:17.224Z,101151.88
2023-02-18T04:27:22.310Z,101137.81
2023-02-18T04:32:32.059Z,101122.00
2023-02-18T04:37:39.728Z,101106.97
2023-02-18T04:42:44.393Z,101101.69
2023-02-18T04:47:50.340Z,101127.66
2023-02-18T04:52:55.447Z,101104.97
2023-02-18T04:58:00.489Z,101104.72
2023-02-18T05:03:06.336Z,101100.94
2023-02-18T05:08:12.471Z,101104.22
2023-02-18T05:13:18.331Z,101119.00
2023-02-18T05:18:23.066Z,101145.13
2023-02-18T05:23:28.563Z,101138.25
2023-02-18T05:28:33.858Z,101153.19
2023-02-18T05:33:39.734Z,101152.00
2023-02-18T05:38:45.048Z,101138.06
2023-02-18T05:44:10.013Z,101122.38
2023-02-18T05:49:15.061Z,101146.78
2023-02-18T05:54:21.527Z,101140.00
2023-02-18T05:59:27.258Z,101149.94
2023-02-18T06:04:33.192Z,101234.63
2023-02-18T06:09:39.319Z,101169.44
2023-02-18T06:14:45.451Z,101179.59
2023-02-18T06:19:52.542Z,101163.63
2023-02-18T06:24:57.686Z,101174.47
2023-02-18T06:30:02.101Z,101184.00
2023-02-18T06:35:08.478Z,101178.59
2023-02-18T06:40:14.940Z,101177.34
2023-02-18T06:45:20.980Z,101184.72
2023-02-18T06:50:27.058Z,101192.19
2023-02-18T06:55:32.385Z,101200.59
2023-02-18T07:00:37.617Z,101221.34
2023-02-18T07:05:43.748Z,101234.59
2023-02-18T07:10:49.339Z,101243.66
2023-02-18T07:15:53.957Z,101241.34
2023-02-18T07:21:00.889Z,101247.69
2023-02-18T07:26:15.784Z,101278.19
2023-02-18T07:31:21.174Z,101293.72
2023-02-18T07:36:25.334Z,101281.69
2023-02-18T07:41:30.457Z,101339.91
2023-02-18T07:46:36.381Z,101298.66
2023-02-18T07:51:41.671Z,101308.56
2023-02-18T07:56:48.145Z,101329.84
2023-02-18T08:01:52.925Z,101342.47
2023-02-18T08:06:57.558Z,101322.75
2023-02-18T08:12:02.215Z,101350.94
2023-02-18T08:17:07.560Z,101372.63
2023-02-18T08:22:12.125Z,101394.75
2023-02-18T08:27:17.770Z,101405.13
2023-02-18T08:32:22.493Z,101410.97
2023-02-18T08:37:27.229Z,101443.13
2023-02-18T08:42:31.871Z,101440.47
2023-02-18T08:48:17.250Z,101459.72
2023-02-18T08:53:05.645Z,101478.75
2023-02-18T08:58:11.718Z,101516.16
2023-02-18T09:03:17.183Z,101506.56
2023-02-18T09:08:22.942Z,101553.13
2023-02-18T09:13:32.147Z,101548.69
2023-02-18T09:18:37.549Z,101583.53
2023-02-18T09:23:42.561Z,101622.25
2023-02-18T09:28:48.058Z,101629.88
2023-02-18T09:33:53.528Z,101681.47
2023-02-18T09:38:59.472Z,101727.09
2023-02-18T09:44:23.382Z,101694.84
2023-02-18T09:49:59.316Z,101722.38
2023-02-18T09:55:21.811Z,101703.34
2023-02-18T10:00:45.988Z,101720.31
2023-02-18T10:05:58.951Z,101734.44
2023-02-18T10:11:04.065Z,101777.56
2023-02-18T10:16:09.428Z,101774.63
2023-02-18T10:21:33.222Z,101794.94
2023-02-18T10:26:41.978Z,101812.94
2023-02-18T10:31:57.061Z,101810.91
2023-02-18T10:37:27.655Z,101828.72
2023-02-18T10:42:59.305Z,101859.81
2023-02-18T10:48:29.357Z,101855.31
2023-02-18T10:53:38.101Z,101865.00
2023-02-18T10:58:48.730Z,101898.88
2023-02-18T11:04:07.695Z,101893.84
2023-02-18T11:09:28.626Z,101952.94
2023-02-18T11:14:42.771Z,101942.53
2023-02-18T11:20:01.137Z,101948.94
2023-02-18T11:25:26.861Z,101951.56
2023-02-18T11:30:42.492Z,101943.81
2023-02-18T11:35:54.058Z,101945.00
2023-02-18T11:41:11.546Z,101953.19
2023-02-18T11:46:20.924Z,101949.06
2023-02-18T11:51:31.130Z,101948.94
2023-02-18T11:56:38.079Z,101953.28
2023-02-18T12:01:54.702Z,101951.66
2023-02-18T12:07:08.583Z,101967.59
2023-02-18T12:12:21.306Z,101978.69
2023-02-18T12:17:35.082Z,102008.34
2023-02-18T12:22:44.619Z,101968.78
2023-02-18T12:28:30.341Z,101978.00
2023-02-18T12:34:01.957Z,101980.28
2023-02-18T12:39:36.193Z,101978.69
2023-02-18T12:44:47.038Z,101977.19
2023-02-18T12:50:01.402Z,101983.97
2023-02-18T12:55:28.989Z,101982.13
2023-02-18T13:00:45.416Z,101984.44
2023-02-18T13:06:15.012Z,101985.81
2023-02-18T13:11:45.035Z,102014.75
2023-02-18T13:17:00.252Z,101987.97
2023-02-18T13:22:08.280Z,101984.59
2023-02-18T13:27:13.453Z,101980.25
2023-02-18T13:32:40.232Z,101983.69
2023-02-18T13:38:04.168Z,101982.91
2023-02-18T13:43:24.679Z,101992.47
2023-02-18T13:48:32.092Z,101998.28
2023-02-18T13:53:45.086Z,102005.97
2023-02-18T13:58:57.566Z,101993.00
2023-02-18T14:04:03.355Z,102007.53
2023-02-18T14:09:14.297Z,101999.63
2023-02-18T14:14:39.348Z,102005.81
2023-02-18T14:19:44.179Z,102005.31
2023-02-18T14:25:10.558Z,102009.72
2023-02-18T14:30:26.749Z,102003.81
2023-02-18T14:35:59.417Z,101996.06
2023-02-18T14:41:14.047Z,101999.63
2023-02-18T14:46:48.373Z,102017.09
2023-02-18T14:51:57.600Z,102019.09
2023-02-18T14:57:18.467Z,102049.56
2023-02-18T15:02:33.069Z,102019.50
2023-02-18T15:07:38.809Z,102016.06
2023-02-18T15:12:45.109Z,102005.63
2023-02-18T15:17:51.968Z,102036.00
2023-02-18T15:22:57.571Z,102010.94
2023-02-18T15:28:02.661Z,102005.91
2023-02-18T15:33:16.851Z,102026.66
2023-02-18T15:38:23.010Z,102012.38
2023-02-18T15:43:29.776Z,102013.63
2023-02-18T15:48:45.797Z,102007.03
2023-02-18T15:53:54.899Z,101997.75
2023-02-18T15:59:31.767Z,102025.56
2023-02-18T16:04:42.741Z,101994.78
2023-02-18T16:09:47.577Z,102005.25
2023-02-18T16:14:52.582Z,102018.31
2023-02-18T16:20:07.362Z,102020.06
2023-02-18T16:25:15.939Z,102007.28
2023-02-18T16:30:25.015Z,102003.09
2023-02-18T16:35:47.507Z,102038.47
2023-02-18T16:40:55.577Z,102007.38
2023-02-18T16:46:19.549Z,102006.59
2023-02-18T16:51:33.283Z,102004.13
2023-02-18T16:56:37.836Z,102009.44
2023-02-18T17:01:47.005Z,102000.88
2023-02-18T17:06:52.753Z,101995.78
2023-02-18T17:11:58.311Z,101986.25
2023-02-18T17:17:02.360Z,101969.75
2023-02-18T17:22:07.351Z,101965.25
2023-02-18T17:27:13.366Z,101952.09
2023-02-18T17:32:18.010Z,102003.56
2023-02-18T17:37:22.700Z,101970.81
2023-02-18T17:42:27.394Z,101960.38
2023-02-18T17:47:31.976Z,101965.97
2023-02-18T17:52:38.579Z,101972.38
2023-02-18T17:57:43.236Z,101960.91
2023-02-18T18:02:47.877Z,101954.56
2023-02-18T18:07:53.083Z,101963.72
2023-02-18T18:12:58.547Z,101964.31
2023-02-18T18:18:03.455Z,101971.06
2023-02-18T18:23:09.630Z,101951.88
2023-02-18T18:28:14.512Z,101947.44
2023-02-18T18:33:20.224Z,101944.41
2023-02-18T18:38:27.065Z,101931.41
2023-02-18T18:43:36.795Z,101935.63
2023-02-18T18:48:41.419Z,101951.81
2023-02-18T18:53:46.275Z,101932.75
2023-02-18T18:58:51.480Z,101923.13
2023-02-18T19:03:57.769Z,101903.97
2023-02-18T19:09:02.442Z,101904.06
2023-02-18T19:14:07.172Z,101899.66
2023-02-18T19:19:13.713Z,101892.00
2023-02-18T19:24:18.374Z,101898.78
2023-02-18T19:29:25.050Z,101925.47
2023-02-18T19:34:29.671Z,101927.16
2023-02-18T19:39:36.247Z,101878.47
2023-02-18T19:44:41.025Z,101875.78
2023-02-18T19:49:45.842Z,101877.38
2023-02-18T19:54:50.573Z,101878.81
2023-02-18T19:59:55.204Z,101874.53
2023-02-18T20:05:05.415Z,101883.00
2023-02-18T20:10:15.013Z,101882.81
2023-02-18T20:15:20.666Z,101885.91
2023-02-18T20:20:25.982Z,101872.84
2023-02-18T20:25:30.623Z,101857.97
2023-02-18T20:30:35.408Z,101901.91
2023-02-18T20:35:40.033Z,101863.78
2023-02-18T20:40:44.628Z,101870.59
2023-02-18T20:45:49.315Z,101865.44
2023-02-18T20:50:53.898Z,101909.75
2023-02-18T20:55:59.474Z,101862.97
2023-02-18T21:01:10.215Z,101864.72
2023-02-18T21:06:17.335Z,101879.34
2023-02-18T21:11:27.489Z,101858.72
2023-02-18T21:16:51.059Z,101856.44
2023-02-18T21:21:55.682Z,101866.41
2023-02-18T21:27:00.438Z,101847.47
2023-02-18T21:32:05.205Z,101851.59
2023-02-18T21:37:11.137Z,101853.41
2023-02-18T21:42:15.200Z,101862.66
2023-02-18T21:47:19.707Z,101890.44
2023-02-18T21:52:27.516Z,101860.97
2023-02-18T21:57:32.100Z,101870.56
2023-02-18T22:02:37.220Z,101855.38
2023-02-18T22:07:43.075Z,101842.63
2023-02-18T22:12:47.721Z,101884.72
2023-02-18T22:17:52.378Z,101852.00
2023-02-18T22:22:56.976Z,101845.13
2023-02-18T22:28:02.417Z,101834.94
2023-02-18T22:33:07.106Z,101884.41
2023-02-18T22:38:11.783Z,101857.59
2023-02-18T22:43:17.275Z,101850.69
2023-02-18T22:48:21.942Z,101850.94
2023-02-18T22:53:26.575Z,101851.28
2023-02-18T22:58:31.349Z,101847.41
2023-02-18T23:03:36.742Z,101850.25
2023-02-18T23:08:42.454Z,101851.69
2023-02-18T23:14:07.852Z,101850.25
2023-02-18T23:19:12.453Z,101888.78
2023-02-18T23:24:17.359Z,101858.72
2023-02-18T23:29:22.678Z,101859.50
2023-02-18T23:34:27.411Z,101882.81
2023-02-18T23:39:32.045Z,101886.09
2023-02-18T23:44:36.711Z,101886.09
2023-02-18T23:49:40.849Z,101886.72
2023-02-18T23:54:45.543Z,101926.28
2023-02-18T23:59:50.207Z,101900.25
